Time;durP1;ratioP1;P1;durP2;ratioP2;P2;SDS_P1;SDS_P2;PMS_P1;PMS_P2;Temp;Humidity;BMP_temperature;BMP_pressure;BME280_temperature;BME280_humidity;BME280_pressure;Samples;Min_cycle;Max_cycle;Signal;HPM_P1;HPM_P2
2023/05/22 00:01:05;;;;;;;1.40;1.30;;;;;;;;;;7394933;19;20144;-90
2023/05/22 00:03:32;;;;;;;1.30;1.13;;;;;;;;;;7394282;19;20133;-91
2023/05/22 00:05:59;;;;;;;1.42;1.33;;;;;;;;;;7401860;19;20204;-91
2023/05/22 00:08:26;;;;;;;1.02;1.02;;;;;;;;;;7397433;19;20691;-90
2023/05/22 00:10:55;;;;;;;0.70;0.70;;;;;;;;;;7401226;19;20144;-90
2023/05/22 00:13:22;;;;;;;1.02;1.02;;;;;;;;;;7397778;19;20151;-90
2023/05/22 00:15:48;;;;;;;0.75;0.75;;;;;;;;;;7396774;19;20145;-90
2023/05/22 00:18:16;;;;;;;1.33;1.23;;;;;;;;;;7398912;19;20157;-90
2023/05/22 00:21:07;;;;;;;0.63;0.60;;;;;;;;;;7398381;19;20153;-90
2023/05/22 00:23:34;;;;;;;0.82;0.82;;;;;;;;;;7394877;19;20516;-90
2023/05/22 00:30:16;;;;;;;1.15;0.75;;;;;;;;;;7351700;19;20222;-95
2023/05/22 00:32:53;;;;;;;0.52;0.52;;;;;;;;;;7424600;19;20136;-95
2023/05/22 00:35:24;;;;;;;0.88;0.88;;;;;;;;;;7423777;19;20200;-94
2023/05/22 00:38:39;;;;;;;0.77;0.77;;;;;;;;;;7424055;19;20140;-95
2023/05/22 00:41:52;;;;;;;0.90;0.90;;;;;;;;;;7423939;19;20921;-95
2023/05/22 00:44:56;;;;;;;0.90;0.90;;;;;;;;;;7423116;19;20156;-94
2023/05/22 00:48:15;;;;;;;;;;;;;;;;;;;;;
2023/05/22 00:50:45;;;;;;;1.50;1.40;;;;;;;;;;7413690;19;20164;-93
2023/05/22 00:53:12;;;;;;;1.00;0.90;;;;;;;;;;7418651;19;20141;-93
2023/05/22 00:55:39;;;;;;;0.80;0.80;;;;;;;;;;7419916;19;20173;-93
2023/05/22 00:58:10;;;;;;;0.98;0.93;;;;;;;;;;7415520;19;20142;-93
2023/05/22 01:00:38;;;;;;;2.15;1.05;;;;;;;;;;7411877;19;20147;-93
2023/05/22 01:03:08;;;;;;;1.88;1.77;;;;;;;;;;7408811;19;20225;-94
2023/05/22 01:05:36;;;;;;;1.25;1.25;;;;;;;;;;7403035;19;20173;-93
2023/05/22 01:08:05;;;;;;;0.63;0.63;;;;;;;;;;7414712;19;20125;-94
2023/05/22 01:10:33;;;;;;;1.83;1.65;;;;;;;;;;7424952;19;20133;-93
2023/05/22 01:13:09;;;;;;;1.38;1.27;;;;;;;;;;7424653;19;20148;-93
2023/05/22 01:15:45;;;;;;;1.42;1.33;;;;;;;;;;7420979;19;20175;-93
2023/05/22 01:18:42;;;;;;;1.48;1.38;;;;;;;;;;7418151;19;20129;-93
2023/05/22 01:21:23;;;;;;;1.63;1.52;;;;;;;;;;7418134;19;20137;-94
2023/05/22 01:24:10;;;;;;;1.10;1.00;;;;;;;;;;7423390;19;20155;-93
2023/05/22 01:27:14;;;;;;;0.95;0.90;;;;;;;;;;7430104;19;20153;-94
2023/05/22 01:30:32;;;;;;;1.27;1.17;;;;;;;;;;7427210;19;20136;-94
2023/05/22 01:33:00;;;;;;;1.27;1.08;;;;;;;;;;7425436;19;20141;-94
2023/05/22 01:35:27;;;;;;;1.20;0.57;;;;;;;;;;7426163;19;20167;-94
2023/05/22 01:37:54;;;;;;;0.98;0.88;;;;;;;;;;7423118;19;20133;-93
2023/05/22 01:40:21;;;;;;;1.40;1.30;;;;;;;;;;7425262;19;20136;-94
2023/05/22 01:42:48;;;;;;;1.00;1.00;;;;;;;;;;7426246;19;20146;-94
2023/05/22 01:45:15;;;;;;;0.77;0.77;;;;;;;;;;7419384;19;20161;-96
2023/05/22 01:47:42;;;;;;;1.45;1.35;;;;;;;;;;7418604;19;20133;-94
2023/05/22 01:50:10;;;;;;;0.77;0.63;;;;;;;;;;7414002;19;20144;-94
2023/05/22 01:52:58;;;;;;;1.10;1.10;;;;;;;;;;7425782;19;20133;-95
2023/05/22 01:55:34;;;;;;;1.60;1.50;;;;;;;;;;7419349;19;20168;-94
2023/05/22 01:58:16;;;;;;;0.93;0.93;;;;;;;;;;7425183;19;20136;-94
2023/05/22 02:00:44;;;;;;;0.70;0.70;;;;;;;;;;7421037;19;20149;-94
2023/05/22 02:03:18;;;;;;;0.80;0.77;;;;;;;;;;7416023;19;20150;-95
2023/05/22 02:05:51;;;;;;;0.77;0.77;;;;;;;;;;7424035;19;20192;-93
2023/05/22 02:08:19;;;;;;;1.00;1.00;;;;;;;;;;7430445;19;20140;-95
2023/05/22 02:10:47;;;;;;;0.98;0.98;;;;;;;;;;7426961;19;20133;-94
2023/05/22 02:13:14;;;;;;;1.25;1.20;;;;;;;;;;7420716;19;20129;-94
2023/05/22 02:15:44;;;;;;;0.60;0.60;;;;;;;;;;7424909;19;20172;-94
2023/05/22 02:18:14;;;;;;;0.45;0.45;;;;;;;;;;7424345;19;20133;-94
2023/05/22 02:20:41;;;;;;;1.30;1.25;;;;;;;;;;7426137;19;20133;-96
2023/05/22 02:23:08;;;;;;;0.70;0.70;;;;;;;;;;7425754;19;20137;-94
2023/05/22 02:25:34;;;;;;;0.85;0.85;;;;;;;;;;7426137;19;20153;-94
2023/05/22 02:28:01;;;;;;;1.00;1.00;;;;;;;;;;7427926;19;20150;-95
2023/05/22 02:30:28;;;;;;;0.93;0.93;;;;;;;;;;7423988;19;20163;-94
2023/05/22 02:32:57;;;;;;;1.40;1.27;;;;;;;;;;7428253;19;20142;-94
2023/05/22 02:35:23;;;;;;;2.10;0.90;;;;;;;;;;7425785;19;20174;-95
2023/05/22 02:37:50;;;;;;;0.57;0.57;;;;;;;;;;7422667;19;21908;-94
2023/05/22 02:40:17;;;;;;;0.70;0.70;;;;;;;;;;7425390;19;20137;-95
2023/05/22 02:42:44;;;;;;;1.40;1.38;;;;;;;;;;7425949;19;21984;-94
2023/05/22 02:45:10;;;;;;;0.82;0.82;;;;;;;;;;7426083;19;20179;-94
2023/05/22 02:47:37;;;;;;;0.60;0.60;;;;;;;;;;7419659;19;20141;-94
2023/05/22 02:50:05;;;;;;;1.02;1.02;;;;;;;;;;7417934;19;20133;-95
2023/05/22 02:52:31;;;;;;;1.10;1.10;;;;;;;;;;7420956;19;20169;-95
2023/05/22 02:54:58;;;;;;;1.25;1.00;;;;;;;;;;7419858;19;20161;-95
2023/05/22 02:57:25;;;;;;;0.90;0.90;;;;;;;;;;7421199;19;20569;-95
2023/05/22 02:59:52;;;;;;;0.68;0.68;;;;;;;;;;7419291;19;20137;-95
2023/05/22 03:02:19;;;;;;;0.65;0.65;;;;;;;;;;7424375;19;20137;-95
2023/05/22 03:04:46;;;;;;;1.27;1.13;;;;;;;;;;7425917;19;20152;-95
2023/05/22 03:07:13;;;;;;;2.42;1.05;;;;;;;;;;7427862;19;20149;-94
2023/05/22 03:09:40;;;;;;;0.93;0.93;;;;;;;;;;7426946;19;20125;-95
2023/05/22 03:12:07;;;;;;;1.27;1.13;;;;;;;;;;7422999;19;20137;-95
2023/05/22 03:14:35;;;;;;;1.33;1.23;;;;;;;;;;7425157;19;20172;-95
2023/05/22 03:17:02;;;;;;;0.88;0.88;;;;;;;;;;7424180;19;20137;-95
2023/05/22 03:19:29;;;;;;;1.10;0.80;;;;;;;;;;7425497;19;20137;-95
2023/05/22 03:21:56;;;;;;;4.68;1.67;;;;;;;;;;7426103;19;20140;-94
2023/05/22 03:24:23;;;;;;;1.02;1.02;;;;;;;;;;7425271;19;20161;-95
2023/05/22 03:26:49;;;;;;;0.93;0.90;;;;;;;;;;7424281;19;20150;-94
2023/05/22 03:29:16;;;;;;;1.55;1.45;;;;;;;;;;7423723;19;20180;-95
2023/05/22 03:31:43;;;;;;;1.20;1.10;;;;;;;;;;7422803;19;20165;-95
2023/05/22 03:34:10;;;;;;;1.80;1.67;;;;;;;;;;7426927;19;20149;-93
2023/05/22 03:36:36;;;;;;;1.13;1.13;;;;;;;;;;7424069;19;20146;-95
2023/05/22 03:39:04;;;;;;;1.80;1.05;;;;;;;;;;7426855;19;20125;-95
2023/05/22 03:41:30;;;;;;;1.08;1.02;;;;;;;;;;7426569;19;20140;-95
2023/05/22 03:43:57;;;;;;;1.65;1.55;;;;;;;;;;7422021;19;20137;-95
2023/05/22 03:46:24;;;;;;;1.63;1.52;;;;;;;;;;7424300;19;20137;-95
2023/05/22 03:48:51;;;;;;;0.93;0.93;;;;;;;;;;7423225;19;20133;-95
2023/05/22 03:51:18;;;;;;;0.90;0.90;;;;;;;;;;7423971;19;20133;-95
2023/05/22 03:53:45;;;;;;;1.85;0.85;;;;;;;;;;7423944;19;20133;-93
2023/05/22 03:56:12;;;;;;;0.70;0.70;;;;;;;;;;7425123;19;20137;-95
2023/05/22 03:58:39;;;;;;;0.40;0.40;;;;;;;;;;7420558;19;20141;-95
2023/05/22 04:01:08;;;;;;;1.27;1.23;;;;;;;;;;7424853;19;20133;-94
2023/05/22 04:03:38;;;;;;;1.23;0.80;;;;;;;;;;7423733;19;20136;-95
2023/05/22 04:06:06;;;;;;;1.08;1.08;;;;;;;;;;7423853;19;20136;-95
2023/05/22 04:08:33;;;;;;;1.13;1.00;;;;;;;;;;7424809;19;20129;-95
2023/05/22 04:11:00;;;;;;;1.00;1.00;;;;;;;;;;7421695;19;20141;-95
2023/05/22 04:13:29;;;;;;;0.85;0.85;;;;;;;;;;7423777;19;20142;-95
2023/05/22 04:15:56;;;;;;;0.85;0.85;;;;;;;;;;7419083;19;20165;-96
2023/05/22 04:18:23;;;;;;;2.65;1.55;;;;;;;;;;7423300;19;20133;-95
2023/05/22 04:20:50;;;;;;;1.02;0.98;;;;;;;;;;7422463;19;20132;-95
2023/05/22 04:23:17;;;;;;;1.17;0.98;;;;;;;;;;7423037;19;20141;-95
2023/05/22 04:25:46;;;;;;;0.93;0.90;;;;;;;;;;7421151;19;20164;-95
2023/05/22 04:28:16;;;;;;;0.85;0.85;;;;;;;;;;7420490;19;20143;-95
2023/05/22 04:30:43;;;;;;;1.15;1.15;;;;;;;;;;7422955;19;20136;-95
2023/05/22 04:33:11;;;;;;;1.55;1.35;;;;;;;;;;7420123;19;20137;-96
2023/05/22 04:35:47;;;;;;;0.90;0.90;;;;;;;;;;7412383;19;20236;-90
2023/05/22 04:38:14;;;;;;;1.98;1.13;;;;;;;;;;7392922;19;20219;-90
2023/05/22 04:40:42;;;;;;;0.50;0.50;;;;;;;;;;7394652;19;20137;-90
2023/05/22 04:43:15;;;;;;;1.00;0.85;;;;;;;;;;7398037;19;20140;-90
2023/05/22 04:45:42;;;;;;;1.35;1.23;;;;;;;;;;7403489;19;20209;-90
2023/05/22 04:48:10;;;;;;;1.05;1.05;;;;;;;;;;7412574;19;20176;-90
2023/05/22 04:50:37;;;;;;;0.68;0.68;;;;;;;;;;7415935;19;20145;-90
2023/05/22 04:53:05;;;;;;;1.30;1.20;;;;;;;;;;7396800;19;20140;-90
2023/05/22 04:55:34;;;;;;;0.73;0.73;;;;;;;;;;7401009;19;20145;-90
2023/05/22 04:58:04;;;;;;;0.90;0.90;;;;;;;;;;7399769;19;20180;-90
2023/05/22 05:00:31;;;;;;;1.38;1.27;;;;;;;;;;7404531;19;20152;-91
2023/05/22 05:02:59;;;;;;;1.08;1.02;;;;;;;;;;7398952;19;20137;-90
2023/05/22 05:05:26;;;;;;;0.93;0.93;;;;;;;;;;7400159;19;20196;-90
2023/05/22 05:07:53;;;;;;;1.27;1.17;;;;;;;;;;7401749;19;20180;-90
2023/05/22 05:10:20;;;;;;;1.10;1.08;;;;;;;;;;7400450;19;20140;-91
2023/05/22 05:12:47;;;;;;;1.90;1.40;;;;;;;;;;7404813;19;20145;-91
2023/05/22 05:15:14;;;;;;;1.00;0.80;;;;;;;;;;7403340;19;20141;-91
2023/05/22 05:17:41;;;;;;;0.75;0.75;;;;;;;;;;7399663;19;20162;-90
2023/05/22 05:20:08;;;;;;;2.72;1.02;;;;;;;;;;7399486;19;20137;-90
2023/05/22 05:22:36;;;;;;;0.68;0.68;;;;;;;;;;7395829;19;20549;-89
2023/05/22 05:25:04;;;;;;;0.88;0.88;;;;;;;;;;7404443;19;20644;-90
2023/05/22 05:27:31;;;;;;;1.10;1.10;;;;;;;;;;7404203;19;20558;-90
2023/05/22 05:31:04;;;;;;;0.73;0.73;;;;;;;;;;7399200;19;20165;-90
2023/05/22 05:33:56;;;;;;;1.20;1.17;;;;;;;;;;7401147;19;20137;-91
2023/05/22 05:47:54;;;;;;;1.05;1.05;;;;;;;;;;7403088;19;20201;-90
2023/05/22 05:54:34;;;;;;;1.35;1.25;;;;;;;;;;7397060;19;20134;-90
2023/05/22 06:00:59;;;;;;;0.55;0.55;;;;;;;;;;7395872;19;20153;-89
2023/05/22 06:03:26;;;;;;;0.95;0.95;;;;;;;;;;7400919;19;20149;-89
2023/05/22 06:05:53;;;;;;;1.38;1.27;;;;;;;;;;7401615;19;20165;-90
2023/05/22 06:08:20;;;;;;;1.42;1.33;;;;;;;;;;7398564;19;20575;-90
2023/05/22 06:10:47;;;;;;;1.60;0.95;;;;;;;;;;7406050;19;20491;-90
2023/05/22 06:13:14;;;;;;;1.30;1.23;;;;;;;;;;7402416;19;20606;-89
2023/05/22 06:15:40;;;;;;;0.88;0.88;;;;;;;;;;7404345;19;20149;-88
2023/05/22 06:18:07;;;;;;;1.30;1.10;;;;;;;;;;7404537;19;20198;-88
2023/05/22 06:20:34;;;;;;;0.45;0.45;;;;;;;;;;7408169;19;20485;-90
2023/05/22 06:23:00;;;;;;;0.98;0.98;;;;;;;;;;7404629;19;20137;-89
2023/05/22 06:25:28;;;;;;;1.52;1.23;;;;;;;;;;7406739;19;20152;-90
2023/05/22 06:27:55;;;;;;;3.05;1.35;;;;;;;;;;7405900;19;20220;-90
2023/05/22 06:30:22;;;;;;;0.65;0.65;;;;;;;;;;7404756;19;20140;-88
2023/05/22 06:33:06;;;;;;;0.65;0.65;;;;;;;;;;7408018;19;20125;-89
2023/05/22 06:35:33;;;;;;;1.25;0.82;;;;;;;;;;7406182;19;20480;-89
2023/05/22 06:37:59;;;;;;;0.98;0.98;;;;;;;;;;7406618;19;20180;-89
2023/05/22 06:40:26;;;;;;;1.95;1.38;;;;;;;;;;7407706;19;20616;-89
2023/05/22 06:42:53;;;;;;;1.27;1.20;;;;;;;;;;7407570;19;20140;-89
2023/05/22 06:45:20;;;;;;;0.85;0.85;;;;;;;;;;7404915;19;20141;-90
2023/05/22 06:47:51;;;;;;;0.57;0.57;;;;;;;;;;7415269;19;20141;-89
2023/05/22 06:50:18;;;;;;;1.67;1.45;;;;;;;;;;7410280;19;20204;-89
2023/05/22 06:52:45;;;;;;;1.05;1.05;;;;;;;;;;7406710;19;20479;-89
2023/05/22 06:55:11;;;;;;;0.98;0.98;;;;;;;;;;7407573;19;20168;-89
2023/05/22 06:57:38;;;;;;;1.45;1.40;;;;;;;;;;7408105;19;20487;-90
2023/05/22 07:00:11;;;;;;;1.48;1.33;;;;;;;;;;7408617;19;20188;-89
2023/05/22 07:02:38;;;;;;;0.57;0.57;;;;;;;;;;7406946;19;20196;-90
2023/05/22 07:05:06;;;;;;;0.55;0.55;;;;;;;;;;7405076;19;20137;-89
2023/05/22 07:07:32;;;;;;;1.17;1.17;;;;;;;;;;7407246;19;20555;-88
2023/05/22 07:09:59;;;;;;;0.95;0.95;;;;;;;;;;7409056;19;20146;-89
2023/05/22 07:12:26;;;;;;;0.73;0.73;;;;;;;;;;7407683;19;20663;-89
2023/05/22 07:14:53;;;;;;;0.80;0.80;;;;;;;;;;7405789;19;20560;-89
2023/05/22 07:17:20;;;;;;;1.17;1.13;;;;;;;;;;7404237;19;20140;-90
2023/05/22 07:19:47;;;;;;;2.65;1.10;;;;;;;;;;7405643;19;20621;-89
2023/05/22 07:22:14;;;;;;;0.93;0.93;;;;;;;;;;7405404;19;20141;-88
2023/05/22 07:24:41;;;;;;;0.45;0.45;;;;;;;;;;7409066;19;20137;-89
2023/05/22 07:27:08;;;;;;;1.70;1.23;;;;;;;;;;7407999;19;20152;-90
2023/05/22 07:29:35;;;;;;;0.60;0.60;;;;;;;;;;7415202;19;20164;-92
2023/05/22 07:32:01;;;;;;;1.70;1.25;;;;;;;;;;7430884;19;20144;-91
2023/05/22 07:34:32;;;;;;;0.80;0.80;;;;;;;;;;7428593;19;20157;-92
2023/05/22 07:37:05;;;;;;;3.22;1.80;;;;;;;;;;7429646;19;20133;-92
2023/05/22 07:39:32;;;;;;;0.63;0.63;;;;;;;;;;7414556;19;20168;-89
2023/05/22 07:41:59;;;;;;;1.30;0.88;;;;;;;;;;7407012;19;20192;-89
2023/05/22 07:44:27;;;;;;;1.40;1.27;;;;;;;;;;7405914;19;20145;-89
2023/05/22 07:46:54;;;;;;;0.80;0.80;;;;;;;;;;7405779;19;20133;-88
2023/05/22 07:49:22;;;;;;;1.10;0.95;;;;;;;;;;7405190;19;20580;-88
2023/05/22 07:51:49;;;;;;;0.82;0.82;;;;;;;;;;7406977;19;20169;-89
2023/05/22 07:54:17;;;;;;;0.50;0.50;;;;;;;;;;7405623;19;20148;-89
2023/05/22 07:56:44;;;;;;;1.55;0.80;;;;;;;;;;7407733;19;20144;-89
2023/05/22 07:59:11;;;;;;;0.70;0.70;;;;;;;;;;7422920;19;20176;-90
2023/05/22 08:01:39;;;;;;;0.77;0.77;;;;;;;;;;7425147;19;20137;-90
2023/05/22 08:04:05;;;;;;;1.00;1.00;;;;;;;;;;7421454;19;20176;-90
2023/05/22 08:06:36;;;;;;;1.42;1.33;;;;;;;;;;7424112;19;20140;-89
2023/05/22 08:09:05;;;;;;;1.45;1.35;;;;;;;;;;7419801;19;20176;-91
2023/05/22 08:11:33;;;;;;;0.80;0.80;;;;;;;;;;7424646;19;20146;-91
2023/05/22 08:13:59;;;;;;;0.98;0.98;;;;;;;;;;7427413;19;20109;-91
2023/05/22 08:16:26;;;;;;;0.70;0.70;;;;;;;;;;7418455;19;20137;-88
2023/05/22 08:18:53;;;;;;;2.20;1.02;;;;;;;;;;7407409;19;20598;-89
2023/05/22 08:21:20;;;;;;;1.30;1.17;;;;;;;;;;7409962;19;20145;-88
2023/05/22 08:23:49;;;;;;;0.57;0.57;;;;;;;;;;7405993;19;20141;-89
2023/05/22 08:26:16;;;;;;;0.95;0.95;;;;;;;;;;7406143;19;20140;-88
2023/05/22 08:28:43;;;;;;;0.82;0.82;;;;;;;;;;7405091;19;20177;-89
2023/05/22 08:31:16;;;;;;;0.75;0.75;;;;;;;;;;7403424;19;20139;-88
2023/05/22 08:34:05;;;;;;;1.20;1.10;;;;;;;;;;7405348;19;20161;-88
2023/05/22 08:36:34;;;;;;;0.50;0.50;;;;;;;;;;7409841;19;20176;-90
2023/05/22 08:39:13;;;;;;;0.63;0.63;;;;;;;;;;7404678;19;20180;-88
2023/05/22 08:41:42;;;;;;;0.88;0.88;;;;;;;;;;7402839;19;20144;-89
2023/05/22 08:44:12;;;;;;;0.50;0.50;;;;;;;;;;7412510;19;20163;-88
2023/05/22 08:46:44;;;;;;;0.55;0.55;;;;;;;;;;7406044;19;20216;-90
2023/05/22 08:49:21;;;;;;;1.05;1.05;;;;;;;;;;7400959;19;20273;-88
2023/05/22 08:52:06;;;;;;;0.60;0.60;;;;;;;;;;7405404;19;20200;-87
2023/05/22 08:54:35;;;;;;;0.95;0.95;;;;;;;;;;7404681;19;20144;-88
2023/05/22 08:57:05;;;;;;;0.65;0.65;;;;;;;;;;7406319;19;20145;-90
2023/05/22 08:59:35;;;;;;;3.08;0.95;;;;;;;;;;7404126;19;20165;-87
2023/05/22 09:02:04;;;;;;;0.60;0.60;;;;;;;;;;7400052;19;20152;-84
2023/05/22 09:04:32;;;;;;;0.50;0.50;;;;;;;;;;7402727;19;20125;-83
2023/05/22 09:07:04;;;;;;;1.23;1.08;;;;;;;;;;7405228;19;20196;-84
2023/05/22 09:09:35;;;;;;;0.65;0.65;;;;;;;;;;7403064;19;20156;-84
2023/05/22 09:12:08;;;;;;;0.60;0.60;;;;;;;;;;7402067;19;20601;-85
2023/05/22 09:14:41;;;;;;;0.80;0.80;;;;;;;;;;7407189;19;20141;-83
2023/05/22 09:17:10;;;;;;;0.93;0.93;;;;;;;;;;7403529;19;20146;-87
2023/05/22 09:19:37;;;;;;;0.93;0.68;;;;;;;;;;7393507;19;20624;-88
2023/05/22 09:22:05;;;;;;;0.80;0.80;;;;;;;;;;7401933;19;20181;-87
2023/05/22 09:24:41;;;;;;;0.93;0.93;;;;;;;;;;7399076;19;20605;-87
2023/05/22 09:27:09;;;;;;;1.15;1.08;;;;;;;;;;7403411;19;20456;-87
2023/05/22 09:29:50;;;;;;;1.27;0.68;;;;;;;;;;7406007;19;20572;-87
2023/05/22 09:32:18;;;;;;;1.05;0.93;;;;;;;;;;7409887;19;20149;-88
2023/05/22 09:34:45;;;;;;;0.88;0.75;;;;;;;;;;7408796;19;20507;-88
2023/05/22 09:37:13;;;;;;;0.70;0.70;;;;;;;;;;7407503;19;20185;-87
2023/05/22 09:39:51;;;;;;;0.55;0.55;;;;;;;;;;7405515;19;20506;-87
2023/05/22 09:42:21;;;;;;;0.68;0.68;;;;;;;;;;7408314;19;20140;-89
2023/05/22 09:44:48;;;;;;;4.00;1.05;;;;;;;;;;7414429;19;20148;-88
2023/05/22 09:47:16;;;;;;;0.75;0.75;;;;;;;;;;7408783;19;20537;-88
2023/05/22 09:49:43;;;;;;;0.45;0.45;;;;;;;;;;7402430;19;20149;-88
2023/05/22 09:52:13;;;;;;;2.90;1.05;;;;;;;;;;7413465;19;20547;-90
2023/05/22 09:54:54;;;;;;;0.65;0.65;;;;;;;;;;7406932;19;20180;-89
2023/05/22 09:57:23;;;;;;;0.70;0.70;;;;;;;;;;7405041;19;20196;-88
2023/05/22 10:00:00;;;;;;;0.47;0.47;;;;;;;;;;7399057;19;20179;-88
2023/05/22 10:02:32;;;;;;;0.50;0.50;;;;;;;;;;7402266;19;20145;-88
2023/05/22 10:04:59;;;;;;;0.80;0.80;;;;;;;;;;7407555;19;20144;-89
2023/05/22 10:07:33;;;;;;;0.40;0.40;;;;;;;;;;7400889;19;20722;-88
2023/05/22 10:10:06;;;;;;;1.05;0.70;;;;;;;;;;7404547;19;20163;-89
2023/05/22 10:12:39;;;;;;;0.80;0.80;;;;;;;;;;7406993;19;20644;-90
2023/05/22 10:15:08;;;;;;;1.33;0.77;;;;;;;;;;7413138;19;20147;-87
2023/05/22 10:17:35;;;;;;;0.68;0.68;;;;;;;;;;7411842;19;20129;-88
2023/05/22 10:20:11;;;;;;;0.65;0.65;;;;;;;;;;7413088;19;20145;-87
2023/05/22 10:22:38;;;;;;;1.38;0.82;;;;;;;;;;7410284;19;20129;-88
2023/05/22 10:25:08;;;;;;;0.77;0.77;;;;;;;;;;7411690;19;20184;-87
2023/05/22 10:27:37;;;;;;;0.50;0.50;;;;;;;;;;7402391;19;20597;-87
2023/05/22 10:30:07;;;;;;;0.95;0.95;;;;;;;;;;7404206;19;20148;-87
2023/05/22 10:32:44;;;;;;;0.68;0.68;;;;;;;;;;7406537;19;20145;-87
2023/05/22 10:35:20;;;;;;;0.93;0.93;;;;;;;;;;7405663;19;20168;-87
2023/05/22 10:38:35;;;;;;;0.77;0.70;;;;;;;;;;7404523;19;20137;-87
2023/05/22 10:41:02;;;;;;;1.63;0.88;;;;;;;;;;7410073;19;20163;-88
2023/05/22 10:43:32;;;;;;;0.60;0.60;;;;;;;;;;7404268;19;20148;-88
2023/05/22 10:46:03;;;;;;;0.82;0.82;;;;;;;;;;7404555;19;20180;-88
2023/05/22 10:48:38;;;;;;;0.80;0.80;;;;;;;;;;7404898;19;20487;-87
2023/05/22 10:51:08;;;;;;;0.82;0.82;;;;;;;;;;7398355;19;20128;-87
2023/05/22 10:53:37;;;;;;;2.28;1.20;;;;;;;;;;7398901;19;20144;-86
2023/05/22 10:56:11;;;;;;;0.75;0.75;;;;;;;;;;7398260;19;20301;-88
2023/05/22 10:58:39;;;;;;;0.70;0.70;;;;;;;;;;7398792;19;20591;-87
2023/05/22 11:01:19;;;;;;;1.30;1.23;;;;;;;;;;7397147;19;20136;-87
2023/05/22 11:03:57;;;;;;;0.98;0.98;;;;;;;;;;7399616;19;20145;-87
2023/05/22 11:06:47;;;;;;;0.60;0.60;;;;;;;;;;7401355;19;20140;-87
2023/05/22 11:09:31;;;;;;;0.85;0.85;;;;;;;;;;7400081;19;20176;-86
2023/05/22 11:12:20;;;;;;;0.85;0.85;;;;;;;;;;7401546;19;20148;-87
2023/05/22 11:14:50;;;;;;;1.40;1.30;;;;;;;;;;7402239;19;20160;-88
2023/05/22 11:17:39;;;;;;;0.50;0.50;;;;;;;;;;7401659;19;20196;-88
2023/05/22 11:20:24;;;;;;;0.50;0.50;;;;;;;;;;7399912;19;20145;-87
2023/05/22 11:23:00;;;;;;;1.13;1.10;;;;;;;;;;7397611;19;20141;-89
2023/05/22 11:25:28;;;;;;;0.70;0.70;;;;;;;;;;7398033;19;20144;-89
2023/05/22 11:27:55;;;;;;;1.05;1.05;;;;;;;;;;7401099;19;20149;-88
2023/05/22 11:30:25;;;;;;;0.70;0.70;;;;;;;;;;7401933;19;20164;-88
2023/05/22 11:32:52;;;;;;;1.45;0.70;;;;;;;;;;7401036;19;20477;-87
2023/05/22 11:35:21;;;;;;;0.85;0.85;;;;;;;;;;7404773;19;20145;-88
2023/05/22 11:37:49;;;;;;;0.63;0.55;;;;;;;;;;7404390;19;20133;-88
2023/05/22 11:40:17;;;;;;;0.88;0.77;;;;;;;;;;7397615;19;20137;-88
2023/05/22 11:42:44;;;;;;;1.48;1.38;;;;;;;;;;7399873;19;20125;-88
2023/05/22 11:45:11;;;;;;;1.35;1.33;;;;;;;;;;7402571;19;20183;-88
2023/05/22 11:47:38;;;;;;;1.17;1.08;;;;;;;;;;7401762;19;20172;-88
2023/05/22 11:50:08;;;;;;;2.33;1.17;;;;;;;;;;7402884;19;20597;-88
2023/05/22 11:52:36;;;;;;;0.60;0.60;;;;;;;;;;7399653;19;20144;-89
2023/05/22 11:55:04;;;;;;;0.50;0.50;;;;;;;;;;7404475;19;20176;-88
2023/05/22 11:57:31;;;;;;;0.52;0.52;;;;;;;;;;7399374;19;20661;-88
2023/05/22 11:59:58;;;;;;;0.60;0.60;;;;;;;;;;7404797;19;20173;-88
2023/05/22 12:02:25;;;;;;;0.93;0.93;;;;;;;;;;7403802;19;20151;-89
2023/05/22 12:04:56;;;;;;;1.23;1.10;;;;;;;;;;7404509;19;20360;-88
2023/05/22 12:07:23;;;;;;;0.70;0.70;;;;;;;;;;7400574;19;20145;-89
2023/05/22 12:09:59;;;;;;;0.77;0.77;;;;;;;;;;7400429;19;20220;-88
2023/05/22 12:12:26;;;;;;;0.85;0.85;;;;;;;;;;7404524;19;20501;-88
2023/05/22 12:14:58;;;;;;;0.50;0.50;;;;;;;;;;7399966;19;20153;-89
2023/05/22 12:17:29;;;;;;;1.00;1.00;;;;;;;;;;7396274;19;20137;-89
2023/05/22 12:20:04;;;;;;;1.20;1.20;;;;;;;;;;7398244;19;20141;-88
2023/05/22 12:22:30;;;;;;;1.05;0.93;;;;;;;;;;7401941;19;20200;-88
2023/05/22 12:24:57;;;;;;;0.90;0.90;;;;;;;;;;7397334;19;20136;-89
2023/05/22 12:27:28;;;;;;;2.47;0.80;;;;;;;;;;7396962;19;20141;-88
2023/05/22 12:30:07;;;;;;;1.10;1.10;;;;;;;;;;7399259;19;20231;-87
2023/05/22 12:32:34;;;;;;;0.77;0.77;;;;;;;;;;7402770;19;20152;-88
2023/05/22 12:35:15;;;;;;;1.17;1.13;;;;;;;;;;7402708;19;20139;-89
2023/05/22 12:38:06;;;;;;;1.00;1.00;;;;;;;;;;7403594;19;20166;-88
2023/05/22 12:40:32;;;;;;;0.52;0.52;;;;;;;;;;7403930;19;20196;-87
2023/05/22 12:42:59;;;;;;;9.88;1.23;;;;;;;;;;7401843;19;20121;-88
2023/05/22 12:45:36;;;;;;;0.88;0.88;;;;;;;;;;7404620;19;20161;-88
2023/05/22 12:48:33;;;;;;;8.77;1.13;;;;;;;;;;7398275;19;20168;-88
2023/05/22 12:51:14;;;;;;;1.17;1.17;;;;;;;;;;7394566;19;20145;-86
2023/05/22 12:53:45;;;;;;;0.85;0.85;;;;;;;;;;7393703;19;20140;-86
2023/05/22 12:56:12;;;;;;;1.55;1.00;;;;;;;;;;7390083;19;20210;-87
2023/05/22 12:58:38;;;;;;;0.82;0.82;;;;;;;;;;7387939;19;20189;-86
2023/05/22 13:01:05;;;;;;;0.70;0.70;;;;;;;;;;7386644;19;20149;-86
2023/05/22 13:03:32;;;;;;;1.00;1.00;;;;;;;;;;7399899;19;20152;-87
2023/05/22 13:05:59;;;;;;;1.50;0.82;;;;;;;;;;7407798;19;20189;-88
2023/05/22 13:08:25;;;;;;;0.70;0.70;;;;;;;;;;7406805;19;20710;-88
2023/05/22 13:10:52;;;;;;;0.75;0.75;;;;;;;;;;7417947;19;20125;-88
2023/05/22 13:13:19;;;;;;;0.80;0.80;;;;;;;;;;7405197;19;20204;-88
2023/05/22 13:15:45;;;;;;;1.13;1.13;;;;;;;;;;7402979;19;20143;-88
2023/05/22 13:18:12;;;;;;;0.90;0.90;;;;;;;;;;7406336;19;20573;-88
2023/05/22 13:20:39;;;;;;;1.25;1.05;;;;;;;;;;7420614;19;20529;-87
2023/05/22 13:23:09;;;;;;;1.67;1.30;;;;;;;;;;7429789;19;20137;-88
2023/05/22 13:25:35;;;;;;;1.17;1.17;;;;;;;;;;7416891;19;20158;-89
2023/05/22 13:28:02;;;;;;;0.93;0.93;;;;;;;;;;7421439;19;20201;-88
2023/05/22 13:30:31;;;;;;;0.98;0.90;;;;;;;;;;7404622;19;20137;-88
2023/05/22 13:33:05;;;;;;;0.65;0.65;;;;;;;;;;7402305;19;20124;-89
2023/05/22 13:35:34;;;;;;;1.02;1.02;;;;;;;;;;7398926;19;20156;-90
2023/05/22 13:38:13;;;;;;;0.85;0.85;;;;;;;;;;7405942;19;20152;-90
2023/05/22 13:41:16;;;;;;;1.00;0.90;;;;;;;;;;7404472;19;20156;-90
2023/05/22 13:43:44;;;;;;;1.08;1.08;;;;;;;;;;7394601;19;20148;-90
2023/05/22 13:46:16;;;;;;;1.38;1.27;;;;;;;;;;7395284;19;20137;-91
2023/05/22 13:48:50;;;;;;;0.80;0.80;;;;;;;;;;7395201;19;20851;-90
2023/05/22 13:51:27;;;;;;;1.17;1.17;;;;;;;;;;7395671;19;20143;-90
2023/05/22 13:54:03;;;;;;;0.95;0.95;;;;;;;;;;7396477;19;20156;-88
2023/05/22 13:56:31;;;;;;;0.88;0.88;;;;;;;;;;7404055;19;20148;-90
2023/05/22 13:59:00;;;;;;;0.60;0.60;;;;;;;;;;7396199;19;20199;-89
2023/05/22 14:01:26;;;;;;;0.80;0.80;;;;;;;;;;7400421;19;20121;-89
2023/05/22 14:03:55;;;;;;;1.50;1.42;;;;;;;;;;7400991;19;20136;-90
2023/05/22 14:06:23;;;;;;;0.80;0.80;;;;;;;;;;7399405;19;20156;-90
2023/05/22 14:09:00;;;;;;;1.00;1.00;;;;;;;;;;7398094;19;20506;-90
2023/05/22 14:11:27;;;;;;;0.80;0.80;;;;;;;;;;7398317;19;20192;-89
2023/05/22 14:20:43;;;;;;;0.60;0.60;;;;;;;;;;7402224;19;20487;-90
2023/05/22 14:23:52;;;;;;;0.98;0.95;;;;;;;;;;7401832;19;20145;-89
2023/05/22 14:27:41;;;;;;;;;;;;;;;;;;;;;
2023/05/22 14:30:57;;;;;;;;;;;;;;;;;;;;;
2023/05/22 14:51:03;;;;;;;0.75;0.75;;;;;;;;;;7403321;19;20148;-91
2023/05/22 14:53:31;;;;;;;1.00;1.00;;;;;;;;;;7399362;19;20133;-91
2023/05/22 14:55:58;;;;;;;1.60;1.17;;;;;;;;;;7398670;19;20121;-91
2023/05/22 14:58:25;;;;;;;0.77;0.77;;;;;;;;;;7403531;19;20293;-90
2023/05/22 15:00:51;;;;;;;0.65;0.65;;;;;;;;;;7400945;19;20204;-91
2023/05/22 15:03:20;;;;;;;0.82;0.82;;;;;;;;;;7400326;19;20151;-91
2023/05/22 15:05:47;;;;;;;0.95;0.95;;;;;;;;;;7406121;19;20145;-91
2023/05/22 15:08:13;;;;;;;0.73;0.73;;;;;;;;;;7407077;19;20598;-90
2023/05/22 15:10:54;;;;;;;1.00;1.00;;;;;;;;;;7394481;19;20171;-89
2023/05/22 15:13:20;;;;;;;0.55;0.55;;;;;;;;;;7402371;19;20129;-90
2023/05/22 15:15:47;;;;;;;0.82;0.82;;;;;;;;;;7398888;19;20143;-90
2023/05/22 15:18:15;;;;;;;0.98;0.98;;;;;;;;;;7394822;19;20552;-90
2023/05/22 15:24:46;;;;;;;1.17;1.17;;;;;;;;;;7401181;19;20144;-90
2023/05/22 15:35:04;;;;;;;0.77;0.77;;;;;;;;;;7405486;19;20803;-90
2023/05/22 16:00:58;;;;;;;0.55;0.55;;;;;;;;;;7400709;19;20161;-89
2023/05/22 16:03:32;;;;;;;0.95;0.95;;;;;;;;;;7393088;19;20200;-88
2023/05/22 16:06:21;;;;;;;;;;;;;;;;;;;;;
2023/05/22 16:08:53;;;;;;;0.73;0.73;;;;;;;;;;7400017;19;20176;-88
2023/05/22 16:18:55;;;;;;;0.60;0.60;;;;;;;;;;7399353;19;20161;-89
2023/05/22 16:21:43;;;;;;;0.75;0.75;;;;;;;;;;7397212;19;20180;-87
2023/05/22 16:24:10;;;;;;;0.85;0.85;;;;;;;;;;7395883;19;20153;-87
2023/05/22 16:26:43;;;;;;;0.77;0.77;;;;;;;;;;7400065;19;20137;-89
2023/05/22 16:29:20;;;;;;;0.63;0.63;;;;;;;;;;7401257;19;20671;-89
2023/05/22 16:31:52;;;;;;;0.90;0.90;;;;;;;;;;7404872;19;20173;-90
2023/05/22 16:34:19;;;;;;;1.45;0.95;;;;;;;;;;7396782;19;20200;-88
2023/05/22 16:49:36;;;;;;;1.05;0.93;;;;;;;;;;7405144;19;20562;-88
2023/05/22 16:52:44;;;;;;;1.20;1.10;;;;;;;;;;7405536;19;20145;-88
2023/05/22 16:56:00;;;;;;;0.55;0.55;;;;;;;;;;7404194;19;20181;-88